Time;durP1;ratioP1;P1;durP2;ratioP2;P2;SDS_P1;SDS_P2;PMS_P1;PMS_P2;Temp;Humidity;BMP_temperature;BMP_pressure;BME280_temperature;BME280_humidity;BME280_pressure;Samples;Min_cycle;Max_cycle;Signal;HPM_P1;HPM_P2
2023/10/24 00:00:02;;;;;;;10.63;1.48;;;;;;;10.42;100.00;99195.09;5029650;28;20056;-43
2023/10/24 00:02:29;;;;;;;10.20;2.38;;;;;;;10.42;100.00;99200.63;5028582;28;20045;-44
2023/10/24 00:04:56;;;;;;;7.82;2.05;;;;;;;10.41;100.00;99185.97;5021512;28;20104;-43
2023/10/24 00:07:22;;;;;;;8.70;1.30;;;;;;;10.42;100.00;99184.00;5027431;28;20033;-42
2023/10/24 00:09:49;;;;;;;12.10;1.38;;;;;;;10.43;100.00;99183.66;5030076;28;20037;-45
2023/10/24 00:12:16;;;;;;;5.70;1.15;;;;;;;10.42;100.00;99167.41;5030002;28;20502;-47
2023/10/24 00:14:43;;;;;;;13.75;1.20;;;;;;;10.39;100.00;99178.06;5030349;28;20077;-45
2023/10/24 00:17:09;;;;;;;10.43;1.63;;;;;;;10.39;100.00;99172.53;5029112;28;20049;-47
2023/10/24 00:19:36;;;;;;;7.95;2.13;;;;;;;10.42;100.00;99168.22;5030041;28;20514;-45
2023/10/24 00:22:03;;;;;;;9.32;1.63;;;;;;;10.44;100.00;99154.00;5029837;28;20052;-44
2023/10/24 00:24:30;;;;;;;7.55;1.20;;;;;;;10.45;100.00;99155.59;5029842;28;20589;-43
2023/10/24 00:26:57;;;;;;;14.93;3.22;;;;;;;10.47;100.00;99159.56;5022540;28;20052;-44
2023/10/24 00:29:24;;;;;;;11.57;2.13;;;;;;;10.49;100.00;99159.16;5029630;28;20081;-45
2023/10/24 00:31:51;;;;;;;11.27;2.90;;;;;;;10.51;100.00;99154.06;5029175;28;20045;-43
2023/10/24 00:34:18;;;;;;;10.52;1.55;;;;;;;10.53;100.00;99165.53;5029663;28;20047;-44
2023/10/24 00:36:45;;;;;;;9.25;1.88;;;;;;;10.56;100.00;99156.47;5029064;28;20051;-43
2023/10/24 00:39:12;;;;;;;8.77;1.23;;;;;;;10.60;100.00;99151.75;5028529;28;20053;-44
2023/10/24 00:41:40;;;;;;;9.23;1.40;;;;;;;10.60;100.00;99149.78;5028505;28;20049;-46
2023/10/24 00:44:07;;;;;;;3.53;0.95;;;;;;;10.60;100.00;99146.22;5029723;28;20450;-45
2023/10/24 00:46:36;;;;;;;8.93;1.75;;;;;;;10.60;100.00;99146.22;5028633;28;20509;-44
2023/10/24 00:49:03;;;;;;;7.10;0.95;;;;;;;10.62;100.00;99149.38;5029523;28;20049;-45
2023/10/24 00:51:30;;;;;;;7.93;1.30;;;;;;;10.62;100.00;99141.09;5028098;28;20041;-50
2023/10/24 00:53:59;;;;;;;10.98;1.90;;;;;;;10.63;100.00;99134.38;5028521;28;20131;-45
2023/10/24 00:56:29;;;;;;;6.97;1.50;;;;;;;10.66;100.00;99139.16;5024874;28;20491;-43
2023/10/24 00:58:58;;;;;;;7.95;1.70;;;;;;;10.68;100.00;99142.31;5028642;28;20128;-46
2023/10/24 01:01:24;;;;;;;9.05;1.83;;;;;;;10.70;100.00;99131.66;5027282;28;20069;-44
2023/10/24 01:03:53;;;;;;;9.73;2.20;;;;;;;10.72;100.00;99138.38;5027750;28;20048;-46
2023/10/24 01:06:20;;;;;;;5.28;1.60;;;;;;;10.75;100.00;99125.78;5028130;28;20045;-46
2023/10/24 01:08:46;;;;;;;13.75;1.95;;;;;;;10.77;100.00;99131.72;5028582;28;20132;-45
2023/10/24 01:11:14;;;;;;;20.52;2.35;;;;;;;10.79;100.00;99132.13;5010055;28;20068;-44
2023/10/24 01:13:41;;;;;;;8.93;1.35;;;;;;;10.79;100.00;99118.28;5027529;28;20820;-45
2023/10/24 01:16:08;;;;;;;9.88;2.75;;;;;;;10.82;100.00;99114.75;5027742;28;20053;-44
2023/10/24 01:18:35;;;;;;;3.95;1.27;;;;;;;10.85;100.00;99117.53;5027962;28;20063;-44
2023/10/24 01:21:01;;;;;;;7.03;1.58;;;;;;;10.85;100.00;99108.44;5028207;28;20042;-46
2023/10/24 01:23:30;;;;;;;4.03;1.27;;;;;;;10.84;100.00;99101.31;5028176;28;20046;-45
2023/10/24 01:25:58;;;;;;;16.98;2.17;;;;;;;10.84;100.00;99115.16;5027212;28;20614;-46
2023/10/24 01:28:28;;;;;;;12.85;1.73;;;;;;;10.82;100.00;99121.09;5026961;28;20388;-46
2023/10/24 01:30:54;;;;;;;9.25;1.60;;;;;;;10.82;100.00;99120.28;5028134;28;20043;-44
2023/10/24 01:33:22;;;;;;;15.95;2.28;;;;;;;10.80;100.00;99123.41;5027253;28;20618;-44
2023/10/24 01:35:49;;;;;;;14.63;2.63;;;;;;;10.80;100.00;99126.19;5028032;28;20460;-44
2023/10/24 01:38:16;;;;;;;12.38;2.10;;;;;;;10.78;100.00;99130.53;5027724;28;20131;-47
2023/10/24 01:40:43;;;;;;;10.27;1.73;;;;;;;10.77;100.00;99135.28;5027745;28;20136;-43
2023/10/24 01:43:09;;;;;;;7.97;1.45;;;;;;;10.78;100.00;99136.06;5028415;28;20041;-44
2023/10/24 01:45:36;;;;;;;14.82;2.05;;;;;;;10.77;100.00;99126.19;5028347;28;20099;-43
2023/10/24 01:48:03;;;;;;;13.20;1.23;;;;;;;10.77;100.00;99113.16;5027296;28;20046;-43
2023/10/24 01:50:30;;;;;;;20.48;2.47;;;;;;;10.77;100.00;99117.88;5027694;28;20140;-43
2023/10/24 01:52:58;;;;;;;10.77;1.05;;;;;;;10.76;100.00;99116.28;5027737;28;20041;-44
2023/10/24 01:55:25;;;;;;;17.98;2.15;;;;;;;10.77;100.00;99115.91;5020806;28;20045;-44
2023/10/24 01:57:52;;;;;;;13.80;1.52;;;;;;;10.76;100.00;99117.09;5026665;28;20064;-44
2023/10/24 02:00:19;;;;;;;4.88;1.30;;;;;;;10.76;100.00;99108.78;5026745;28;20084;-43
2023/10/24 02:02:45;;;;;;;10.18;1.00;;;;;;;10.76;100.00;99111.53;5027049;28;20141;-44
2023/10/24 02:05:12;;;;;;;2.65;0.98;;;;;;;10.75;100.00;99121.00;5027976;28;20045;-48
2023/10/24 02:07:39;;;;;;;3.08;0.50;;;;;;;10.75;100.00;99125.78;5027824;28;20049;-44
2023/10/24 02:10:06;;;;;;;4.72;0.80;;;;;;;10.74;100.00;99124.19;5027008;28;20596;-47
2023/10/24 02:12:34;;;;;;;7.22;0.50;;;;;;;10.75;100.00;99117.47;5020713;28;20047;-43
2023/10/24 02:15:03;;;;;;;4.55;0.50;;;;;;;10.73;100.00;99119.81;5027087;28;20048;-44
2023/10/24 02:17:30;;;;;;;8.57;0.95;;;;;;;10.71;100.00;99114.69;5026908;28;20116;-44
2023/10/24 02:19:57;;;;;;;16.65;2.00;;;;;;;10.71;100.00;99120.22;5027428;28;20041;-44
2023/10/24 02:22:23;;;;;;;6.07;1.40;;;;;;;10.70;100.00;99117.81;5026219;28;20041;-44
2023/10/24 02:24:50;;;;;;;3.55;0.63;;;;;;;10.69;100.00;99113.47;5025441;28;20045;-45
2023/10/24 02:27:17;;;;;;;7.68;1.27;;;;;;;10.69;100.00;99116.25;5026825;28;20045;-46
2023/10/24 02:29:44;;;;;;;5.35;0.82;;;;;;;10.68;100.00;99106.34;5026883;28;20041;-46
2023/10/24 02:32:11;;;;;;;7.97;1.17;;;;;;;10.67;100.00;99104.78;5027144;28;20430;-46
2023/10/24 02:34:38;;;;;;;10.23;0.82;;;;;;;10.65;100.00;99104.34;5026745;28;20041;-46
2023/10/24 02:37:05;;;;;;;5.63;1.30;;;;;;;10.65;100.00;99104.34;5027204;28;20048;-46
2023/10/24 02:39:32;;;;;;;12.13;1.83;;;;;;;10.64;100.00;99102.78;5026545;28;20510;-45
2023/10/24 02:42:00;;;;;;;7.57;1.45;;;;;;;10.62;100.00;99105.91;5024907;28;20046;-45
2023/10/24 02:44:26;;;;;;;5.53;1.35;;;;;;;10.63;100.00;99095.63;5026994;28;20045;-45
2023/10/24 02:46:53;;;;;;;9.50;2.45;;;;;;;10.62;100.00;99088.50;5026668;28;20127;-45
2023/10/24 02:49:20;;;;;;;5.25;0.80;;;;;;;10.62;100.00;99091.28;5026084;28;20490;-45
2023/10/24 02:51:47;;;;;;;11.10;1.20;;;;;;;10.62;100.00;99089.31;5025474;28;20121;-47
2023/10/24 02:54:14;;;;;;;7.82;1.58;;;;;;;10.62;100.00;99091.28;5025789;28;20137;-50
2023/10/24 02:56:41;;;;;;;12.70;1.67;;;;;;;10.62;100.00;99089.31;5016789;28;20049;-44
2023/10/24 02:59:08;;;;;;;5.55;1.27;;;;;;;10.62;100.00;99094.84;5026662;28;20080;-46
2023/10/24 03:01:35;;;;;;;5.45;1.58;;;;;;;10.63;100.00;99095.63;5112722;22;20041;-48
2023/10/24 03:04:02;;;;;;;11.57;1.67;;;;;;;10.62;100.00;99088.50;5004496;28;20384;-46
2023/10/24 03:06:29;;;;;;;14.95;3.65;;;;;;;10.61;100.00;99087.72;5006714;28;20141;-47
2023/10/24 03:08:56;;;;;;;6.70;1.30;;;;;;;10.60;100.00;99086.13;5007096;28;20047;-46
2023/10/24 03:11:24;;;;;;;7.47;1.15;;;;;;;10.62;100.00;99082.97;5006432;28;20590;-45
2023/10/24 03:13:55;;;;;;;7.60;0.75;;;;;;;10.60;100.00;99075.06;5001191;28;20038;-47
2023/10/24 03:16:22;;;;;;;6.88;0.60;;;;;;;10.62;100.00;99066.34;5007917;28;20132;-45
2023/10/24 03:18:50;;;;;;;5.47;0.70;;;;;;;10.64;100.00;99070.34;5006507;28;20037;-44
2023/10/24 03:21:17;;;;;;;9.75;1.55;;;;;;;10.66;100.00;99068.00;5006457;28;20054;-45
2023/10/24 03:23:46;;;;;;;8.63;1.02;;;;;;;10.69;100.00;99063.66;5006340;28;20442;-44
2023/10/24 03:26:13;;;;;;;7.00;1.33;;;;;;;10.71;100.00;99056.56;5005180;28;20050;-44
2023/10/24 03:28:40;;;;;;;4.72;1.70;;;;;;;10.74;100.00;99058.56;5005582;28;20030;-45
2023/10/24 03:31:08;;;;;;;6.40;0.85;;;;;;;10.76;100.00;99060.91;5008671;28;20045;-47
2023/10/24 03:33:35;;;;;;;15.98;1.95;;;;;;;10.79;100.00;99054.63;5006148;28;20048;-44
2023/10/24 03:36:01;;;;;;;9.25;0.95;;;;;;;10.80;100.00;99050.69;5006733;28;20069;-46
2023/10/24 03:38:29;;;;;;;3.97;1.05;;;;;;;10.81;100.00;99055.00;5006156;28;20038;-46
2023/10/24 03:40:57;;;;;;;5.68;1.23;;;;;;;10.81;100.00;99044.75;5005786;28;20128;-45
2023/10/24 03:43:24;;;;;;;6.82;0.90;;;;;;;10.83;100.00;99044.34;5006245;28;20041;-44
2023/10/24 03:45:51;;;;;;;9.38;1.58;;;;;;;10.84;100.00;99040.41;5005675;28;20034;-44
2023/10/24 03:48:18;;;;;;;12.35;1.88;;;;;;;10.87;100.00;99034.09;5006082;28;20042;-44
2023/10/24 03:50:44;;;;;;;12.32;1.42;;;;;;;10.88;100.00;99044.00;5001609;28;20046;-47
2023/10/24 03:53:11;;;;;;;10.95;1.17;;;;;;;10.91;100.00;99034.88;5004553;28;20141;-45
2023/10/24 03:55:38;;;;;;;4.93;0.95;;;;;;;10.92;100.00;99036.47;5005899;28;20041;-48
2023/10/24 03:58:05;;;;;;;10.35;0.90;;;;;;;10.94;100.00;99034.13;5006232;28;20124;-44
2023/10/24 04:00:32;;;;;;;24.52;3.53;;;;;;;10.93;100.00;99024.25;5000820;28;20100;-47
2023/10/24 04:03:00;;;;;;;10.38;2.72;;;;;;;10.92;100.00;99019.88;5000969;28;20580;-44
2023/10/24 04:05:30;;;;;;;14.85;2.10;;;;;;;10.93;100.00;99021.47;5004339;28;20042;-45
2023/10/24 04:07:57;;;;;;;12.15;1.42;;;;;;;10.92;100.00;99030.94;5006197;28;20034;-45
2023/10/24 04:10:24;;;;;;;9.80;1.67;;;;;;;10.92;100.00;99019.88;5002990;28;20050;-45
2023/10/24 04:12:50;;;;;;;11.50;2.65;;;;;;;10.94;100.00;99023.03;5001644;28;20485;-46
2023/10/24 04:15:17;;;;;;;6.20;0.98;;;;;;;10.95;100.00;99017.13;5002001;28;20046;-45
2023/10/24 04:17:44;;;;;;;8.73;1.33;;;;;;;10.96;100.00;99012.38;5006394;28;20574;-47
2023/10/24 04:20:11;;;;;;;6.72;1.02;;;;;;;10.97;100.00;99008.41;5002694;28;20034;-49
2023/10/24 04:22:42;;;;;;;6.85;1.40;;;;;;;10.95;100.00;99008.03;5006036;28;20069;-45
2023/10/24 04:25:09;;;;;;;9.32;1.00;;;;;;;10.97;100.00;99016.72;5006315;28;20404;-43
2023/10/24 04:27:35;;;;;;;6.78;1.00;;;;;;;10.97;100.00;99017.53;5006311;28;20052;-43
2023/10/24 04:30:07;;;;;;;9.48;1.50;;;;;;;10.98;100.00;99013.59;4998695;28;20072;-44
2023/10/24 04:32:34;;;;;;;12.02;2.45;;;;;;;10.99;100.00;99015.16;5006476;28;20054;-44
2023/10/24 04:35:01;;;;;;;9.65;1.42;;;;;;;11.00;100.00;99010.41;5006496;28;20177;-44
2023/10/24 04:37:27;;;;;;;12.43;1.33;;;;;;;11.00;100.00;99010.41;5006673;28;20074;-43
2023/10/24 04:39:54;;;;;;;3.85;0.88;;;;;;;10.98;100.00;99013.59;5008147;28;20042;-44
2023/10/24 04:42:21;;;;;;;11.85;2.15;;;;;;;10.96;100.00;99009.63;5009581;28;20046;-44
2023/10/24 04:44:48;;;;;;;12.10;1.05;;;;;;;10.94;100.00;99006.41;5009858;28;20066;-43
2023/10/24 04:47:15;;;;;;;5.28;0.90;;;;;;;10.96;100.00;99015.16;5008379;28;20049;-44
2023/10/24 04:49:41;;;;;;;10.35;1.40;;;;;;;10.96;100.00;99007.63;5009417;28;20034;-44
2023/10/24 04:52:08;;;;;;;8.77;1.15;;;;;;;10.98;100.00;99013.59;5008970;28;20589;-43
2023/10/24 04:54:35;;;;;;;10.10;1.23;;;;;;;11.01;100.00;99006.47;5009306;28;20054;-47
2023/10/24 04:57:02;;;;;;;4.85;1.23;;;;;;;11.04;100.00;99004.91;5009254;28;20145;-44
2023/10/24 04:59:28;;;;;;;9.25;1.23;;;;;;;11.04;100.00;98999.34;5009191;28;20132;-45
2023/10/24 05:01:55;;;;;;;14.68;1.70;;;;;;;11.04;100.00;98999.34;5009521;28;20069;-44
2023/10/24 05:04:22;;;;;;;15.98;1.73;;;;;;;11.04;100.00;99002.91;4996381;28;20136;-46
2023/10/24 05:06:49;;;;;;;17.52;1.65;;;;;;;11.03;100.00;98993.03;4996326;28;20467;-50
2023/10/24 05:09:18;;;;;;;4.85;1.20;;;;;;;11.01;100.00;98998.94;5009564;28;20144;-48
2023/10/24 05:11:45;;;;;;;22.65;2.17;;;;;;;10.98;100.00;99001.72;5008217;28;20046;-45
2023/10/24 05:14:12;;;;;;;7.75;1.27;;;;;;;10.90;100.00;98997.31;5008667;28;20050;-43
2023/10/24 05:16:42;;;;;;;1.88;0.77;;;;;;;10.81;100.00;99008.75;5018196;28;20045;-50
2023/10/24 05:19:09;;;;;;;6.30;1.13;;;;;;;10.73;100.00;99011.88;5007866;28;20038;-44
2023/10/24 05:21:35;;;;;;;1.88;0.60;;;;;;;10.64;100.00;99008.69;5007391;28;20462;-44
2023/10/24 05:24:03;;;;;;;2.25;1.13;;;;;;;10.58;100.00;99002.72;5002227;28;20042;-47
2023/10/24 05:26:29;;;;;;;1.80;0.60;;;;;;;10.53;100.00;99002.28;5008899;28;20077;-46
2023/10/24 05:28:56;;;;;;;3.00;0.50;;;;;;;10.47;100.00;99014.88;4998144;28;20108;-46
2023/10/24 05:31:23;;;;;;;2.05;0.32;;;;;;;10.41;100.00;99006.16;5010847;28;20511;-44
2023/10/24 05:33:50;;;;;;;3.90;0.50;;;;;;;10.35;100.00;99014.03;5008870;28;20141;-44
2023/10/24 05:36:20;;;;;;;5.13;0.50;;;;;;;10.29;100.00;99012.81;5008573;28;20066;-44
2023/10/24 05:38:46;;;;;;;1.67;0.20;;;;;;;10.26;100.00;99010.81;5008556;28;20034;-46
2023/10/24 05:41:13;;;;;;;7.55;0.70;;;;;;;10.24;100.00;99010.41;5004703;28;20116;-43
2023/10/24 05:43:40;;;;;;;1.10;0.45;;;;;;;10.21;100.00;99018.69;5008483;28;20045;-44
2023/10/24 05:46:07;;;;;;;1.40;0.55;;;;;;;10.19;100.00;99018.28;5008345;28;20056;-43
2023/10/24 05:48:35;;;;;;;1.73;1.05;;;;;;;10.17;100.00;99018.66;5007560;28;20103;-44
2023/10/24 05:51:02;;;;;;;3.10;1.02;;;;;;;10.16;100.00;99017.06;5008001;28;20176;-46
2023/10/24 05:53:29;;;;;;;19.10;6.85;;;;;;;10.16;100.00;99016.28;4997851;28;20050;-44
2023/10/24 05:55:55;;;;;;;28.70;10.80;;;;;;;10.14;100.00;99015.88;5004904;28;20069;-43
2023/10/24 05:58:23;;;;;;;57.78;20.00;;;;;;;10.12;100.00;99016.25;5008294;28;20049;-44
2023/10/24 06:00:51;;;;;;;72.40;24.33;;;;;;;10.11;100.00;99006.31;5007525;28;20098;-44
2023/10/24 06:03:19;;;;;;;53.22;16.95;;;;;;;10.10;100.00;99013.03;5007729;28;20041;-44
2023/10/24 06:05:49;;;;;;;62.75;22.95;;;;;;;10.09;100.00;99005.91;5007934;28;20096;-46
2023/10/24 06:08:16;;;;;;;36.83;12.43;;;;;;;10.10;100.00;99013.03;5007686;28;20042;-48
2023/10/24 06:10:43;;;;;;;26.40;9.80;;;;;;;10.10;100.00;99009.47;5008207;28;20452;-44
2023/10/24 06:13:15;;;;;;;10.10;3.75;;;;;;;10.09;100.00;99014.22;5007907;28;20057;-51
2023/10/24 06:15:42;;;;;;;9.93;3.58;;;;;;;10.09;100.00;99016.19;5010227;28;20040;-44
2023/10/24 06:18:09;;;;;;;10.30;2.35;;;;;;;10.07;100.00;99001.94;5014340;28;20415;-44
2023/10/24 06:20:38;;;;;;;4.15;1.65;;;;;;;10.05;100.00;99005.13;5007678;28;20160;-43
2023/10/24 06:23:05;;;;;;;5.80;1.95;;;;;;;10.04;100.00;99003.50;4994904;28;20050;-45
2023/10/24 06:25:39;;;;;;;7.70;1.88;;;;;;;10.03;100.00;99001.94;5003121;28;20542;-44
2023/10/24 06:28:12;;;;;;;8.82;3.88;;;;;;;10.03;100.00;99001.94;5006549;28;20062;-46
2023/10/24 06:30:41;;;;;;;15.80;3.97;;;;;;;10.00;100.00;99019.28;5000548;28;20044;-44
2023/10/24 06:33:08;;;;;;;7.78;2.55;;;;;;;9.99;100.00;99009.41;5003310;28;20046;-44
2023/10/24 06:35:34;;;;;;;11.57;2.70;;;;;;;9.98;100.00;99005.03;5003955;28;20419;-44
2023/10/24 06:38:01;;;;;;;12.25;2.38;;;;;;;9.99;100.00;99005.84;5007257;28;20073;-44
2023/10/24 06:40:28;;;;;;;10.05;3.17;;;;;;;9.99;100.00;99000.31;5006932;28;20053;-44
2023/10/24 06:42:55;;;;;;;3.38;0.93;;;;;;;10.00;100.00;98997.19;5006791;28;20136;-44
2023/10/24 06:45:21;;;;;;;8.85;2.08;;;;;;;10.01;100.00;99009.81;5006195;28;20104;-44
2023/10/24 06:47:48;;;;;;;7.60;1.38;;;;;;;10.03;100.00;99006.66;4997229;28;20053;-44
2023/10/24 06:50:15;;;;;;;2.97;1.17;;;;;;;10.06;100.00;99011.44;5007248;28;20053;-46
2023/10/24 06:52:42;;;;;;;8.73;1.77;;;;;;;10.05;100.00;99023.66;5006413;28;20488;-46
2023/10/24 06:55:09;;;;;;;9.88;1.90;;;;;;;10.05;100.00;99015.38;5001510;28;20382;-46
2023/10/24 06:57:36;;;;;;;5.78;1.20;;;;;;;10.06;100.00;99023.28;4997744;28;20042;-45
2023/10/24 07:00:04;;;;;;;9.73;1.58;;;;;;;10.08;100.00;99022.91;5007631;28;20045;-47
2023/10/24 07:02:33;;;;;;;9.07;2.00;;;;;;;10.11;100.00;99009.09;5004893;28;20737;-46
2023/10/24 07:05:01;;;;;;;9.25;1.80;;;;;;;10.14;100.00;99013.88;5002732;28;20104;-44
2023/10/24 07:07:28;;;;;;;9.52;2.70;;;;;;;10.17;100.00;99021.41;5002005;28;20049;-47
2023/10/24 07:09:54;;;;;;;17.50;4.63;;;;;;;10.22;100.00;99020.25;5006646;28;20042;-47
2023/10/24 07:12:21;;;;;;;8.63;3.63;;;;;;;10.23;100.00;99030.94;4999944;28;20053;-45
2023/10/24 07:14:52;;;;;;;12.70;3.92;;;;;;;10.22;100.00;99045.94;4998837;28;20066;-48
2023/10/24 07:17:19;;;;;;;10.75;2.83;;;;;;;10.22;100.00;99048.72;5004505;28;20128;-44
2023/10/24 07:19:46;;;;;;;18.08;3.40;;;;;;;10.20;100.00;99045.53;5006588;28;20095;-45
2023/10/24 07:22:13;;;;;;;9.88;3.05;;;;;;;10.19;100.00;99043.94;5004251;28;20038;-44
2023/10/24 07:24:40;;;;;;;9.52;3.70;;;;;;;10.18;100.00;99039.59;5002786;28;20041;-46
2023/10/24 07:27:11;;;;;;;10.05;2.30;;;;;;;10.15;100.00;99029.31;5004644;28;20081;-44
2023/10/24 07:29:38;;;;;;;14.52;3.50;;;;;;;10.14;100.00;99024.94;4995733;28;20046;-45
2023/10/24 07:32:05;;;;;;;24.60;6.05;;;;;;;10.13;100.00;99023.38;5004532;28;20111;-45
2023/10/24 07:34:33;;;;;;;12.20;2.80;;;;;;;10.12;100.00;99027.31;5004672;28;20388;-44
2023/10/24 07:37:01;;;;;;;13.55;3.42;;;;;;;10.12;100.00;99019.00;5003132;28;20030;-44
2023/10/24 07:39:27;;;;;;;14.70;3.53;;;;;;;10.12;100.00;99016.25;5004941;28;20181;-45
2023/10/24 07:41:54;;;;;;;15.73;3.88;;;;;;;10.12;100.00;99021.78;5005528;28;20141;-46
2023/10/24 07:44:21;;;;;;;20.52;5.65;;;;;;;10.11;100.00;99017.38;5004892;28;20046;-45
2023/10/24 07:46:48;;;;;;;13.70;3.88;;;;;;;10.12;100.00;99020.94;5001240;28;20044;-44
2023/10/24 07:49:14;;;;;;;17.63;5.07;;;;;;;10.11;100.00;99024.91;5004246;28;20893;-43
2023/10/24 07:51:41;;;;;;;17.10;4.35;;;;;;;10.08;100.00;99022.91;5005415;28;20510;-44
2023/10/24 07:54:08;;;;;;;24.90;3.90;;;;;;;10.08;100.00;99026.47;5004664;28;20179;-45
2023/10/24 07:56:35;;;;;;;13.00;3.30;;;;;;;10.06;100.00;99023.28;5003085;28;20100;-46
2023/10/24 07:59:04;;;;;;;10.52;2.50;;;;;;;10.08;100.00;99020.94;5017546;28;20424;-46
2023/10/24 08:01:30;;;;;;;14.18;3.65;;;;;;;10.15;100.00;99025.75;5003521;28;20042;-46
2023/10/24 08:03:58;;;;;;;14.45;4.07;;;;;;;10.21;100.00;99022.25;5002207;28;20045;-45
2023/10/24 08:06:25;;;;;;;14.10;3.90;;;;;;;10.30;100.00;99022.69;5001411;28;20038;-45
2023/10/24 08:08:55;;;;;;;10.63;2.20;;;;;;;10.42;100.00;99024.34;4992484;28;20061;-46
2023/10/24 08:11:22;;;;;;;10.32;1.83;;;;;;;10.48;100.00;99022.03;5004892;28;20121;-45
2023/10/24 08:13:48;;;;;;;18.15;4.78;;;;;;;10.54;100.00;99031.56;5005209;28;20545;-44
2023/10/24 08:16:17;;;;;;;8.43;2.25;;;;;;;10.62;100.00;99033.94;5008313;28;20095;-45
2023/10/24 08:18:46;;;;;;;21.27;4.88;;;;;;;10.68;100.00;99029.66;5006044;28;20096;-46
2023/10/24 08:21:13;;;;;;;17.45;3.55;;;;;;;10.78;100.00;99028.09;5003449;28;20376;-43
2023/10/24 08:23:40;;;;;;;17.67;5.57;;;;;;;10.91;100.00;99023.81;5007704;28;20092;-42
2023/10/24 08:26:06;;;;;;;5.75;1.70;;;;;;;11.00;100.00;99025.06;5008026;28;20116;-43
2023/10/24 08:28:33;;;;;;;12.55;3.00;;;;;;;11.05;100.00;99026.66;5008226;28;20137;-47
2023/10/24 08:31:00;;;;;;;10.82;2.00;;;;;;;11.09;100.00;99024.69;5010453;28;20049;-45
2023/10/24 08:33:28;;;;;;;22.95;4.80;;;;;;;11.09;100.00;99013.63;5007871;28;20084;-43
2023/10/24 08:35:55;;;;;;;18.85;3.78;;;;;;;11.07;100.00;99026.28;5004732;28;20046;-43
2023/10/24 08:38:22;;;;;;;10.15;1.80;;;;;;;11.05;100.00;99023.88;5008189;28;20052;-43
2023/10/24 08:40:49;;;;;;;13.45;2.15;;;;;;;11.04;100.00;99018.75;5007513;28;20049;-44
2023/10/24 08:43:18;;;;;;;8.32;1.80;;;;;;;11.06;100.00;99021.91;5008254;28;20034;-46
2023/10/24 08:45:45;;;;;;;5.88;1.45;;;;;;;11.07;100.00;99021.50;5007978;28;20052;-45
2023/10/24 08:48:12;;;;;;;11.55;2.45;;;;;;;11.08;100.00;99028.63;5007328;28;20034;-44
2023/10/24 08:50:42;;;;;;;9.02;2.45;;;;;;;11.12;100.00;99029.44;5008473;28;20137;-43
2023/10/24 08:53:15;;;;;;;7.97;1.67;;;;;;;11.17;100.00;99018.00;5007798;28;20053;-42
2023/10/24 08:55:57;;;;;;;8.15;2.08;;;;;;;11.25;100.00;99016.03;5006855;28;20176;-43
2023/10/24 08:58:26;;;;;;;7.85;1.40;;;;;;;11.25;100.00;99019.59;5005026;28;20069;-44
2023/10/24 09:00:54;;;;;;;9.20;1.55;;;;;;;11.26;100.00;99023.16;5006234;28;20164;-47
2023/10/24 09:03:22;;;;;;;14.82;2.90;;;;;;;11.19;100.00;99021.16;5007631;28;20057;-44
2023/10/24 09:05:51;;;;;;;8.32;1.60;;;;;;;11.16;100.00;99033.03;5006997;28;20038;-45
2023/10/24 09:08:17;;;;;;;8.50;1.48;;;;;;;11.15;100.00;99025.88;4999206;28;20085;-44
2023/10/24 09:10:45;;;;;;;9.52;1.73;;;;;;;11.15;100.00;99027.84;5007666;28;20844;-44
2023/10/24 09:13:13;;;;;;;8.80;1.60;;;;;;;11.14;100.00;99029.06;5008090;28;20563;-45
2023/10/24 09:15:40;;;;;;;13.52;1.88;;;;;;;11.14;100.00;99027.09;5006273;28;20553;-44
2023/10/24 09:18:07;;;;;;;17.65;1.85;;;;;;;11.17;100.00;99036.59;5004377;28;20049;-45
2023/10/24 09:20:34;;;;;;;12.75;1.67;;;;;;;11.18;100.00;99036.19;5004219;28;20048;-45
2023/10/24 09:23:08;;;;;;;7.18;1.25;;;;;;;11.19;100.00;99023.94;5008337;28;20046;-44
2023/10/24 09:25:35;;;;;;;10.60;1.60;;;;;;;11.20;100.00;99031.03;5004357;28;20068;-43
2023/10/24 09:28:16;;;;;;;16.65;1.85;;;;;;;11.18;100.00;99033.41;5001275;28;20069;-47
2023/10/24 09:30:43;;;;;;;7.72;1.60;;;;;;;11.15;100.00;99038.94;5009708;28;20503;-44
2023/10/24 09:33:10;;;;;;;10.30;1.45;;;;;;;11.08;100.00;99036.16;5004941;28;20046;-46
2023/10/24 09:35:37;;;;;;;10.88;2.28;;;;;;;10.99;100.00;99031.75;5007090;28;20037;-44
2023/10/24 09:38:09;;;;;;;16.08;2.55;;;;;;;10.93;100.00;99040.84;5004822;28;20377;-44
2023/10/24 09:40:38;;;;;;;9.88;2.47;;;;;;;10.89;100.00;99038.06;4992413;28;20050;-43
2023/10/24 09:43:15;;;;;;;8.20;1.50;;;;;;;10.88;100.00;99030.16;5004596;28;20034;-43
2023/10/24 09:45:44;;;;;;;8.95;1.50;;;;;;;10.88;100.00;99024.63;5000013;28;20045;-43
2023/10/24 09:48:11;;;;;;;9.18;1.45;;;;;;;10.92;100.00;99033.72;5007581;28;20030;-44
2023/10/24 09:50:41;;;;;;;9.55;1.50;;;;;;;10.97;100.00;99022.25;5007036;28;20052;-47
2023/10/24 09:53:09;;;;;;;7.13;1.50;;;;;;;11.02;100.00;99036.53;4996651;28;20062;-45
2023/10/24 09:55:38;;;;;;;8.73;1.60;;;;;;;11.09;100.00;99035.78;4994935;28;20057;-44
2023/10/24 09:58:07;;;;;;;6.43;1.75;;;;;;;11.12;100.00;99026.66;5006450;28;20387;-47
2023/10/24 10:00:34;;;;;;;9.52;1.15;;;;;;;11.14;100.00;99032.63;5007060;28;20471;-43
2023/10/24 10:03:03;;;;;;;9.43;1.92;;;;;;;11.17;100.00;99023.53;5007420;28;20120;-45
2023/10/24 10:05:31;;;;;;;6.88;1.38;;;;;;;11.22;100.00;99031.47;5004911;28;20034;-44
2023/10/24 10:08:02;;;;;;;5.05;1.77;;;;;;;11.32;100.00;99035.44;5006575;28;20092;-43
2023/10/24 10:10:31;;;;;;;7.43;1.30;;;;;;;11.40;100.00;99032.31;5007682;28;20038;-44
2023/10/24 10:13:03;;;;;;;3.38;1.25;;;;;;;11.46;100.00;99036.25;5006373;28;20038;-43
2023/10/24 10:15:47;;;;;;;7.10;2.20;;;;;;;11.51;100.00;99040.66;5004402;28;20836;-43
2023/10/24 10:18:23;;;;;;;8.80;1.52;;;;;;;11.56;100.00;99043.84;5000081;28;20050;-43
2023/10/24 10:21:17;;;;;;;11.15;1.30;;;;;;;11.59;100.00;99043.06;5006948;28;20092;-43
2023/10/24 10:23:47;;;;;;;5.57;1.35;;;;;;;11.68;100.00;99045.41;5005714;28;20581;-44
2023/10/24 10:26:30;;;;;;;17.10;2.17;;;;;;;11.79;100.00;99046.25;5002377;28;20042;-45
2023/10/24 10:29:32;;;;;;;13.38;1.73;;;;;;;11.92;100.00;99047.47;4994426;28;20042;-45
2023/10/24 10:32:11;;;;;;;6.30;1.40;;;;;;;11.98;100.00;99047.88;4962134;28;20116;-47
2023/10/24 10:34:59;;;;;;;10.80;1.00;;;;;;;11.96;100.00;99050.25;5003345;28;20132;-45
2023/10/24 10:37:30;;;;;;;4.35;1.50;;;;;;;11.89;100.00;99053.00;5004627;28;20048;-43
2023/10/24 10:40:15;;;;;;;8.98;1.42;;;;;;;11.82;100.00;99047.44;5006142;28;20088;-47
2023/10/24 10:42:49;;;;;;;11.43;1.70;;;;;;;11.79;100.00;99049.03;5006538;28;20503;-44
2023/10/24 10:45:22;;;;;;;11.20;1.27;;;;;;;11.80;100.00;99058.94;5005497;28;20449;-48
2023/10/24 10:47:49;;;;;;;19.23;1.75;;;;;;;11.83;100.00;99065.69;4993281;28;20038;-44
2023/10/24 10:50:24;;;;;;;13.82;2.05;;;;;;;11.89;100.00;99061.31;5005560;28;20050;-45
2023/10/24 10:52:56;;;;;;;12.27;1.40;;;;;;;11.96;100.00;99053.81;5006191;28;20054;-45
2023/10/24 10:55:52;;;;;;;9.15;1.10;;;;;;;12.14;100.00;99062.13;5011635;28;20109;-44
2023/10/24 10:58:28;;;;;;;4.40;0.98;;;;;;;12.31;100.00;99058.53;4997523;28;20423;-43
2023/10/24 11:01:05;;;;;;;7.03;2.15;;;;;;;12.36;100.00;99062.94;5001900;28;20050;-43
2023/10/24 11:03:39;;;;;;;8.90;1.85;;;;;;;12.39;100.00;99060.13;5019865;28;20044;-43
2023/10/24 11:06:12;;;;;;;5.78;1.00;;;;;;;12.44;100.00;99065.31;4993576;28;20042;-43
2023/10/24 11:08:38;;;;;;;5.57;1.08;;;;;;;12.54;100.00;99064.50;5002186;28;20499;-43
2023/10/24 11:11:09;;;;;;;6.50;1.15;;;;;;;12.68;100.00;99064.44;5005306;28;20088;-43
2023/10/24 11:13:44;;;;;;;4.78;1.23;;;;;;;12.70;100.00;99061.28;5003268;28;20514;-44
2023/10/24 11:16:13;;;;;;;10.73;1.10;;;;;;;12.61;100.00;99058.91;5004635;28;20522;-45
2023/10/24 11:19:00;;;;;;;4.13;0.77;;;;;;;12.51;100.00;99056.97;5000971;28;20044;-42
2023/10/24 11:21:26;;;;;;;4.20;0.65;;;;;;;12.41;100.00;99049.44;5004009;28;20136;-44
2023/10/24 11:23:53;;;;;;;4.05;0.63;;;;;;;12.32;100.00;99051.81;5004780;28;20038;-44
2023/10/24 11:26:20;;;;;;;5.18;0.90;;;;;;;12.25;100.00;99062.13;5004395;28;20053;-44